Time;durP1;ratioP1;P1;durP2;ratioP2;P2;SDS_P1;SDS_P2;PMS_P1;PMS_P2;Temp;Humidity;BMP_temperature;BMP_pressure;BME280_temperature;BME280_humidity;BME280_pressure;Samples;Min_cycle;Max_cycle;Signal;HPM_P1;HPM_P2
2021/04/24 00:00:36;;;;;;;11.25;5.78;;;9.00;64.80;;;;;;5101322;28;20203;-82
2021/04/24 00:03:03;;;;;;;18.23;5.05;;;9.00;65.10;;;;;;5101048;28;20727;-82
2021/04/24 00:05:32;;;;;;;11.73;5.65;;;8.90;65.30;;;;;;5100767;28;20203;-81
2021/04/24 00:08:01;;;;;;;17.58;7.75;;;8.90;65.30;;;;;;5100967;28;20171;-82
2021/04/24 00:10:28;;;;;;;13.38;6.00;;;8.80;65.30;;;;;;5100585;28;20199;-83
2021/04/24 00:12:54;;;;;;;18.75;7.15;;;8.80;65.80;;;;;;5101093;28;20191;-82
2021/04/24 00:15:20;;;;;;;11.00;6.15;;;8.70;66.30;;;;;;5101011;28;20188;-83
2021/04/24 00:17:46;;;;;;;14.98;5.80;;;8.70;65.90;;;;;;5101264;28;20638;-84
2021/04/24 00:20:15;;;;;;;15.43;7.03;;;8.70;66.00;;;;;;5101571;28;20182;-82
2021/04/24 00:22:42;;;;;;;16.58;7.10;;;8.60;67.00;;;;;;5101274;28;20809;-83
2021/04/24 00:25:10;;;;;;;18.55;7.15;;;8.60;66.60;;;;;;5100199;28;20651;-83
2021/04/24 00:27:35;;;;;;;16.90;5.97;;;8.60;66.70;;;;;;5100372;28;20227;-83
2021/04/24 00:30:03;;;;;;;14.23;6.47;;;8.50;66.70;;;;;;5100573;28;20271;-83
2021/04/24 00:32:28;;;;;;;14.70;6.47;;;8.50;66.30;;;;;;5100362;28;20413;-83
2021/04/24 00:34:54;;;;;;;13.93;6.47;;;8.50;66.30;;;;;;5099863;28;20557;-83
2021/04/24 00:37:20;;;;;;;18.83;7.27;;;8.40;66.20;;;;;;5100221;28;20541;-83
2021/04/24 00:39:46;;;;;;;14.50;6.40;;;8.40;67.10;;;;;;5099790;28;20430;-83
2021/04/24 00:42:12;;;;;;;16.33;6.60;;;8.30;67.70;;;;;;5099489;28;20183;-82
2021/04/24 00:44:47;;;;;;;19.02;6.47;;;8.30;68.10;;;;;;5099312;28;20194;-83
2021/04/24 00:47:13;;;;;;;16.35;6.82;;;8.20;67.80;;;;;;5098659;28;20155;-83
2021/04/24 00:49:40;;;;;;;18.50;5.90;;;8.20;68.30;;;;;;5098559;28;20191;-83
2021/04/24 00:52:06;;;;;;;13.30;6.00;;;8.20;68.40;;;;;;5099122;28;20202;-83
2021/04/24 00:54:32;;;;;;;15.25;6.30;;;8.20;68.90;;;;;;5099207;28;20195;-83
2021/04/24 00:56:59;;;;;;;18.92;5.75;;;8.20;68.70;;;;;;5098510;28;20635;-83
2021/04/24 00:59:25;;;;;;;20.70;5.97;;;8.10;68.80;;;;;;5097927;28;20171;-83
2021/04/24 01:01:51;;;;;;;12.13;5.33;;;8.00;68.80;;;;;;5098169;28;20182;-83
2021/04/24 01:04:16;;;;;;;12.45;6.35;;;8.00;68.40;;;;;;5098493;28;20443;-83
2021/04/24 01:06:42;;;;;;;19.53;5.53;;;8.00;68.90;;;;;;5098626;28;20167;-83
2021/04/24 01:09:08;;;;;;;15.37;5.60;;;7.90;69.40;;;;;;5099475;28;20401;-83
2021/04/24 01:11:34;;;;;;;14.03;5.27;;;7.90;68.90;;;;;;5098433;28;20199;-83
2021/04/24 01:14:00;;;;;;;26.80;6.40;;;7.90;68.90;;;;;;5098381;28;20425;-83
2021/04/24 01:16:25;;;;;;;14.70;6.43;;;7.90;69.50;;;;;;5098703;28;20210;-83
2021/04/24 01:18:52;;;;;;;11.30;5.37;;;7.80;70.20;;;;;;5098537;28;20405;-83
2021/04/24 01:21:21;;;;;;;13.18;5.85;;;7.80;70.50;;;;;;5097987;28;20223;-83
2021/04/24 01:23:47;;;;;;;17.17;5.80;;;7.70;70.30;;;;;;5098062;28;20286;-82
2021/04/24 01:26:13;;;;;;;11.60;5.43;;;7.70;70.60;;;;;;5098946;28;20202;-83
2021/04/24 01:28:39;;;;;;;13.45;5.82;;;7.60;71.00;;;;;;5098317;28;20413;-83
2021/04/24 01:31:05;;;;;;;11.77;5.87;;;7.60;71.30;;;;;;5097620;28;20201;-83
2021/04/24 01:33:31;;;;;;;19.37;7.10;;;7.60;71.00;;;;;;5097957;28;20417;-83
2021/04/24 01:35:57;;;;;;;12.03;5.70;;;7.60;70.80;;;;;;5098613;28;20495;-82
2021/04/24 01:38:22;;;;;;;14.17;5.57;;;7.50;71.70;;;;;;5098222;28;20510;-82
2021/04/24 01:40:48;;;;;;;11.30;5.83;;;7.50;71.90;;;;;;5097822;28;20441;-83
2021/04/24 01:43:14;;;;;;;16.13;6.13;;;7.50;71.70;;;;;;5072009;28;755124;-82
2021/04/24 01:45:40;;;;;;;14.23;6.67;;;7.40;72.60;;;;;;5098346;28;20588;-83
2021/04/24 01:48:08;;;;;;;15.40;7.80;;;7.40;72.40;;;;;;5098573;28;20435;-82
2021/04/24 01:50:40;;;;;;;21.98;7.32;;;7.40;72.40;;;;;;5098189;28;20717;-82
2021/04/24 01:53:08;;;;;;;17.17;7.15;;;7.40;73.00;;;;;;5098252;28;20191;-82
2021/04/24 01:55:35;;;;;;;17.95;7.72;;;7.30;73.70;;;;;;5098037;28;20171;-83
2021/04/24 01:58:05;;;;;;;27.15;8.52;;;7.30;73.90;;;;;;5098295;28;20235;-83
2021/04/24 02:00:39;;;;;;;16.95;6.57;;;7.20;73.50;;;;;;5098420;28;20666;-83
2021/04/24 02:03:09;;;;;;;15.55;7.57;;;7.20;73.00;;;;;;5097478;28;20194;-83
2021/04/24 02:05:35;;;;;;;29.00;10.20;;;7.20;73.70;;;;;;5098597;28;20718;-83
2021/04/24 02:08:10;;;;;;;24.47;8.67;;;7.10;73.80;;;;;;5098543;28;20220;-83
2021/04/24 02:10:37;;;;;;;15.65;7.65;;;7.10;74.80;;;;;;5097647;28;20448;-83
2021/04/24 02:13:11;;;;;;;17.35;7.20;;;7.00;74.80;;;;;;5098075;28;20187;-83
2021/04/24 02:15:38;;;;;;;26.33;7.78;;;7.00;74.40;;;;;;5098208;28;20163;-83
2021/04/24 02:18:05;;;;;;;21.67;7.93;;;7.00;75.20;;;;;;5097959;28;20171;-83
2021/04/24 02:20:32;;;;;;;18.58;7.57;;;7.00;74.60;;;;;;5098623;28;20171;-83
2021/04/24 02:22:57;;;;;;;14.68;6.35;;;6.90;74.90;;;;;;5098477;28;20568;-83
2021/04/24 02:25:23;;;;;;;17.30;7.10;;;6.90;74.80;;;;;;5098494;28;20178;-83
2021/04/24 02:27:49;;;;;;;16.80;7.10;;;6.90;74.60;;;;;;5097521;28;20843;-83
2021/04/24 02:30:18;;;;;;;17.73;7.25;;;6.80;75.50;;;;;;5097504;28;20199;-83
2021/04/24 02:32:45;;;;;;;25.02;8.70;;;6.70;75.80;;;;;;5097560;28;20224;-83
2021/04/24 02:35:13;;;;;;;16.83;7.70;;;6.80;75.30;;;;;;5097840;28;20554;-83
2021/04/24 02:37:39;;;;;;;30.38;7.60;;;6.70;75.90;;;;;;5097333;28;20543;-82
2021/04/24 02:40:12;;;;;;;16.03;6.43;;;6.70;76.00;;;;;;5097470;28;20174;-83
2021/04/24 02:42:38;;;;;;;20.02;6.97;;;6.60;76.30;;;;;;5097413;28;20433;-83
2021/04/24 02:45:06;;;;;;;15.90;6.63;;;6.50;76.40;;;;;;5096659;28;20631;-83
2021/04/24 02:47:33;;;;;;;12.75;6.13;;;6.60;76.00;;;;;;5096481;28;20495;-82
2021/04/24 02:50:00;;;;;;;12.77;6.45;;;6.50;76.20;;;;;;5096409;28;20175;-82
2021/04/24 02:52:27;;;;;;;18.30;7.25;;;6.50;76.20;;;;;;5096615;28;20167;-83
2021/04/24 02:54:54;;;;;;;15.85;6.82;;;6.50;76.40;;;;;;5096449;28;20644;-83
2021/04/24 02:57:20;;;;;;;20.48;6.25;;;6.50;76.60;;;;;;5097421;28;20224;-83
2021/04/24 02:59:46;;;;;;;12.20;6.25;;;6.50;76.00;;;;;;5100760;28;20179;-83
2021/04/24 03:02:14;;;;;;;15.57;6.10;;;6.50;76.40;;;;;;5101249;28;20175;-83
2021/04/24 03:04:39;;;;;;;17.58;6.65;;;6.50;77.10;;;;;;5100628;28;20207;-83
2021/04/24 03:07:05;;;;;;;13.30;6.80;;;6.50;77.10;;;;;;5100896;28;20171;-83
2021/04/24 03:09:31;;;;;;;15.97;7.00;;;6.40;76.70;;;;;;5100955;28;20174;-83
2021/04/24 03:11:57;;;;;;;21.23;5.37;;;6.40;76.30;;;;;;5100617;28;20208;-83
2021/04/24 03:14:23;;;;;;;16.97;7.17;;;6.40;75.90;;;;;;5101055;28;20924;-83
2021/04/24 03:16:48;;;;;;;26.30;6.87;;;6.40;76.00;;;;;;5100867;28;20444;-83
2021/04/24 03:19:15;;;;;;;18.17;6.40;;;6.30;76.20;;;;;;5100965;28;20405;-82
2021/04/24 03:21:40;;;;;;;19.52;8.60;;;6.30;76.40;;;;;;5100796;28;20497;-83
2021/04/24 03:24:07;;;;;;;15.83;5.80;;;6.30;76.40;;;;;;5100958;28;20221;-82
2021/04/24 03:26:33;;;;;;;10.25;5.50;;;6.20;76.40;;;;;;5100588;28;20171;-83
2021/04/24 03:28:59;;;;;;;14.88;6.57;;;6.20;76.00;;;;;;5101080;28;20172;-83
2021/04/24 03:31:25;;;;;;;15.50;6.75;;;6.20;76.00;;;;;;5100074;28;20726;-83
2021/04/24 03:33:51;;;;;;;15.23;5.90;;;6.20;76.70;;;;;;5101502;28;20266;-83
2021/04/24 03:36:17;;;;;;;17.23;6.23;;;6.10;76.90;;;;;;5100227;28;20779;-83
2021/04/24 03:38:43;;;;;;;11.07;6.10;;;6.10;77.30;;;;;;5118869;28;20425;-82
2021/04/24 03:41:09;;;;;;;15.47;5.37;;;6.10;77.70;;;;;;5100020;28;20644;-82
2021/04/24 03:43:35;;;;;;;16.27;6.00;;;6.00;77.00;;;;;;5100053;28;20238;-83
2021/04/24 03:46:01;;;;;;;28.90;7.97;;;6.00;77.00;;;;;;5099923;28;20175;-82
2021/04/24 03:48:27;;;;;;;16.27;6.68;;;6.00;77.10;;;;;;5100133;28;20262;-82
2021/04/24 03:50:53;;;;;;;15.83;6.77;;;5.90;77.00;;;;;;5100025;28;20222;-82
2021/04/24 03:53:19;;;;;;;18.48;7.10;;;5.90;76.70;;;;;;5100150;28;20425;-82
2021/04/24 03:55:45;;;;;;;19.13;7.13;;;5.90;77.30;;;;;;5100188;28;20231;-83
2021/04/24 03:58:11;;;;;;;14.60;6.47;;;5.90;78.00;;;;;;5099798;28;20409;-83
2021/04/24 04:00:37;;;;;;;16.40;6.33;;;5.90;77.80;;;;;;5099738;28;20990;-83
2021/04/24 04:03:05;;;;;;;27.27;7.15;;;5.90;77.40;;;;;;5099577;28;20429;-82
2021/04/24 04:05:36;;;;;;;16.83;7.03;;;5.80;77.80;;;;;;5099899;28;20533;-83
2021/04/24 04:08:03;;;;;;;20.95;7.18;;;5.80;78.10;;;;;;5100153;28;20635;-83
2021/04/24 04:10:30;;;;;;;10.98;5.65;;;5.80;78.40;;;;;;5098570;28;20332;-81
2021/04/24 04:12:57;;;;;;;15.75;6.68;;;5.80;78.80;;;;;;5099435;28;20191;-82
2021/04/24 04:15:24;;;;;;;12.48;5.85;;;5.80;78.80;;;;;;5099831;28;20627;-83
2021/04/24 04:17:53;;;;;;;15.15;6.53;;;5.80;78.40;;;;;;5099809;28;20175;-83
2021/04/24 04:20:19;;;;;;;9.52;4.90;;;5.80;78.50;;;;;;5099395;28;20183;-83
2021/04/24 04:22:45;;;;;;;20.20;8.63;;;5.70;79.10;;;;;;5099413;28;20175;-82
2021/04/24 04:25:12;;;;;;;25.07;6.07;;;5.70;79.40;;;;;;5099190;28;20435;-83
2021/04/24 04:27:38;;;;;;;16.50;6.55;;;5.70;79.10;;;;;;5098995;28;20440;-82
2021/04/24 04:30:09;;;;;;;13.80;6.73;;;5.70;78.80;;;;;;5117188;28;20179;-82
2021/04/24 04:32:35;;;;;;;10.68;5.38;;;5.70;79.50;;;;;;5099109;28;20167;-83
2021/04/24 04:35:01;;;;;;;25.98;8.38;;;5.70;79.20;;;;;;5098776;28;20175;-83
2021/04/24 04:37:27;;;;;;;19.90;7.67;;;5.60;79.60;;;;;;5099041;28;20167;-83
2021/04/24 04:39:53;;;;;;;17.00;6.70;;;5.60;79.40;;;;;;5099197;28;20397;-82
2021/04/24 04:42:18;;;;;;;18.10;7.00;;;5.60;79.40;;;;;;5098247;28;20186;-83
2021/04/24 04:44:44;;;;;;;16.17;6.30;;;5.60;79.80;;;;;;5099063;28;20290;-82
2021/04/24 04:47:10;;;;;;;18.93;7.23;;;5.60;80.20;;;;;;5098678;28;20413;-83
2021/04/24 04:49:35;;;;;;;13.23;7.30;;;5.60;80.20;;;;;;5099255;28;20183;-83
2021/04/24 04:52:01;;;;;;;14.93;6.50;;;5.60;80.50;;;;;;5099029;28;20310;-83
2021/04/24 04:54:27;;;;;;;20.50;7.30;;;5.60;80.90;;;;;;5099363;28;20421;-83
2021/04/24 04:56:53;;;;;;;15.87;7.23;;;5.60;81.60;;;;;;5098729;28;20409;-82
2021/04/24 04:59:19;;;;;;;17.30;7.67;;;5.60;81.20;;;;;;5099252;28;20274;-82
2021/04/24 05:01:44;;;;;;;15.33;6.30;;;5.60;82.00;;;;;;5099300;28;20171;-82
2021/04/24 05:04:10;;;;;;;17.80;6.80;;;5.60;82.00;;;;;;5099242;28;20195;-83
2021/04/24 05:06:36;;;;;;;15.77;6.80;;;5.60;82.30;;;;;;5099053;28;20417;-83
2021/04/24 05:09:02;;;;;;;16.47;6.57;;;5.70;82.00;;;;;;5098416;28;20198;-83
2021/04/24 05:11:28;;;;;;;15.55;6.80;;;5.70;82.00;;;;;;5098442;28;20191;-83
2021/04/24 05:13:53;;;;;;;13.80;6.77;;;5.70;82.80;;;;;;5098354;28;20191;-83
2021/04/24 05:16:19;;;;;;;18.57;7.67;;;5.70;82.30;;;;;;5099249;28;20206;-83
2021/04/24 05:18:45;;;;;;;15.60;6.30;;;5.70;82.70;;;;;;5098738;28;20400;-83
2021/04/24 05:21:11;;;;;;;18.23;7.87;;;5.80;82.30;;;;;;5098533;28;20203;-82
2021/04/24 05:23:36;;;;;;;16.20;6.53;;;5.80;82.10;;;;;;5098887;28;21019;-83
2021/04/24 05:26:02;;;;;;;17.20;7.47;;;5.80;82.70;;;;;;5098666;28;20454;-83
2021/04/24 05:28:28;;;;;;;17.43;7.03;;;5.80;83.10;;;;;;5098406;28;20416;-83
2021/04/24 05:30:54;;;;;;;18.83;7.80;;;5.80;83.30;;;;;;5098139;28;20688;-83
2021/04/24 05:33:19;;;;;;;14.80;8.03;;;5.80;83.50;;;;;;5098411;28;20736;-83
2021/04/24 05:35:45;;;;;;;21.57;6.97;;;5.90;83.40;;;;;;5098681;28;20638;-83
2021/04/24 05:38:11;;;;;;;19.43;7.60;;;5.90;83.30;;;;;;5097984;28;20413;-83
2021/04/24 05:40:37;;;;;;;23.63;8.03;;;5.90;83.40;;;;;;5098413;28;20413;-83
2021/04/24 05:45:41;;;;;;;15.80;7.68;;;6.00;83.50;;;;;;5110199;28;20456;-77
2021/04/24 05:48:07;;;;;;;19.87;7.93;;;6.10;83.10;;;;;;5098037;28;20171;-79
2021/04/24 05:50:33;;;;;;;21.80;7.88;;;6.20;82.30;;;;;;5105430;28;20261;-79
2021/04/24 05:52:58;;;;;;;20.67;7.30;;;6.30;82.10;;;;;;5107893;28;20256;-79
2021/04/24 05:55:25;;;;;;;21.08;7.45;;;6.40;81.90;;;;;;5124255;28;20968;-79
2021/04/24 05:57:51;;;;;;;23.47;7.57;;;6.40;81.60;;;;;;5108777;28;20171;-79
2021/04/24 06:00:19;;;;;;;18.38;8.38;;;6.40;81.30;;;;;;5108873;28;20401;-80
2021/04/24 06:02:46;;;;;;;18.40;7.43;;;6.50;80.80;;;;;;5108719;28;20167;-80
2021/04/24 06:05:12;;;;;;;18.08;6.70;;;6.50;80.60;;;;;;5108924;28;20181;-80
2021/04/24 06:07:38;;;;;;;16.65;7.65;;;6.60;80.20;;;;;;5108069;28;20254;-80
2021/04/24 06:10:09;;;;;;;18.83;7.53;;;6.60;79.90;;;;;;5107844;28;20195;-79
2021/04/24 06:12:36;;;;;;;16.23;7.15;;;6.70;79.50;;;;;;5107040;28;20171;-80
2021/04/24 06:15:02;;;;;;;16.48;7.55;;;6.80;79.20;;;;;;5108761;28;20212;-80
2021/04/24 06:17:28;;;;;;;18.48;7.28;;;6.90;78.80;;;;;;5106941;28;20611;-80
2021/04/24 06:19:53;;;;;;;16.07;7.70;;;7.00;78.50;;;;;;5104102;28;20239;-80
2021/04/24 06:22:20;;;;;;;19.50;8.30;;;7.10;78.10;;;;;;5103550;28;20413;-80
2021/04/24 06:24:46;;;;;;;15.95;7.40;;;7.20;77.40;;;;;;5104053;28;20992;-80
2021/04/24 06:27:11;;;;;;;17.50;8.67;;;7.40;76.30;;;;;;5105534;28;20223;-81
2021/04/24 06:29:37;;;;;;;34.33;8.87;;;7.50;76.70;;;;;;5107559;28;20429;-80
2021/04/24 06:32:04;;;;;;;21.30;7.93;;;7.60;76.30;;;;;;5103706;28;20543;-79
2021/04/24 06:34:30;;;;;;;15.93;7.65;;;7.70;75.80;;;;;;5106736;28;20809;-79
2021/04/24 06:36:55;;;;;;;18.70;7.40;;;7.90;75.10;;;;;;5109711;28;20178;-79
2021/04/24 06:39:21;;;;;;;25.60;7.20;;;8.00;74.40;;;;;;5126701;28;20492;-78
2021/04/24 06:41:47;;;;;;;16.37;7.73;;;8.10;74.50;;;;;;5109073;28;20178;-78
2021/04/24 06:44:13;;;;;;;15.80;8.10;;;8.20;74.40;;;;;;5107581;28;20464;-79
2021/04/24 06:46:39;;;;;;;16.80;8.30;;;8.40;74.50;;;;;;5109476;28;20635;-78
2021/04/24 06:49:04;;;;;;;16.70;7.70;;;8.50;73.50;;;;;;5111231;28;20436;-79
2021/04/24 06:51:30;;;;;;;21.97;7.93;;;8.60;72.10;;;;;;5113822;28;20606;-80
2021/04/24 06:53:56;;;;;;;16.23;7.40;;;8.80;72.40;;;;;;5110968;28;20425;-78
2021/04/24 06:56:22;;;;;;;18.23;7.90;;;8.90;70.30;;;;;;5103493;28;20444;-78
2021/04/24 06:58:47;;;;;;;19.40;9.00;;;9.10;67.80;;;;;;5122424;28;20167;-78
2021/04/24 07:01:13;;;;;;;16.43;7.87;;;9.20;67.30;;;;;;5101998;28;20199;-79
2021/04/24 07:03:39;;;;;;;17.13;7.40;;;9.40;67.00;;;;;;5088677;28;20568;-78
2021/04/24 07:06:06;;;;;;;19.00;7.83;;;9.50;66.60;;;;;;5090703;28;20420;-79
2021/04/24 07:08:32;;;;;;;25.50;9.93;;;9.70;65.60;;;;;;5087821;28;20944;-78
2021/04/24 07:10:58;;;;;;;16.00;7.43;;;9.80;65.30;;;;;;5102906;28;20218;-75
2021/04/24 07:13:24;;;;;;;27.67;8.10;;;10.00;63.90;;;;;;5106652;28;20190;-79
2021/04/24 07:15:50;;;;;;;15.90;7.43;;;10.20;61.90;;;;;;5111307;28;20167;-80
2021/04/24 07:18:15;;;;;;;21.27;8.27;;;10.30;61.60;;;;;;5112778;28;20407;-80
2021/04/24 07:20:42;;;;;;;17.15;7.82;;;10.40;61.60;;;;;;5115094;28;20179;-79
2021/04/24 07:23:08;;;;;;;20.65;8.85;;;10.50;61.20;;;;;;5112459;28;20186;-80
2021/04/24 07:25:34;;;;;;;24.00;8.00;;;10.70;60.90;;;;;;5109327;28;20214;-79
2021/04/24 07:27:59;;;;;;;17.80;8.10;;;10.80;60.80;;;;;;5106945;28;20171;-78
2021/04/24 07:30:26;;;;;;;29.43;10.20;;;11.00;58.90;;;;;;5103434;28;20452;-79
2021/04/24 07:32:51;;;;;;;24.85;10.05;;;11.10;59.40;;;;;;5100724;28;20187;-78
2021/04/24 07:35:17;;;;;;;25.07;7.67;;;11.20;59.10;;;;;;5102835;28;20178;-78
2021/04/24 07:37:43;;;;;;;20.27;7.67;;;11.40;58.80;;;;;;5103892;28;20417;-78
2021/04/24 07:40:11;;;;;;;19.90;7.65;;;11.50;57.50;;;;;;5119327;28;20167;-78
2021/04/24 07:42:36;;;;;;;24.23;10.32;;;11.60;57.70;;;;;;5100163;28;20172;-78
2021/04/24 07:45:04;;;;;;;14.97;7.70;;;11.80;56.80;;;;;;5119664;28;20703;-77
2021/04/24 07:47:29;;;;;;;21.45;8.82;;;12.00;56.40;;;;;;5095729;28;20172;-78
2021/04/24 07:49:55;;;;;;;17.50;7.70;;;12.20;55.90;;;;;;5082812;28;20389;-78
2021/04/24 07:52:21;;;;;;;27.53;7.97;;;12.30;55.70;;;;;;5096848;28;21058;-77
2021/04/24 07:54:48;;;;;;;14.30;7.47;;;12.40;55.90;;;;;;5098388;28;20433;-77
2021/04/24 07:57:15;;;;;;;16.73;6.90;;;12.60;54.60;;;;;;5100811;28;20443;-78
2021/04/24 07:59:41;;;;;;;23.83;8.35;;;12.70;54.30;;;;;;5099546;28;20175;-78
2021/04/24 08:02:07;;;;;;;19.25;8.90;;;12.90;54.20;;;;;;5101101;28;20254;-78
2021/04/24 08:04:33;;;;;;;28.35;8.43;;;13.00;54.20;;;;;;5102422;28;20220;-78
2021/04/24 08:07:01;;;;;;;23.90;9.50;;;13.10;53.90;;;;;;5118712;28;20163;-78
2021/04/24 08:09:27;;;;;;;18.48;8.45;;;13.20;53.20;;;;;;5100409;28;20431;-78
2021/04/24 08:11:53;;;;;;;22.00;8.93;;;13.20;53.30;;;;;;5100654;28;20226;-78
2021/04/24 08:14:19;;;;;;;17.75;7.72;;;13.30;53.20;;;;;;5100458;28;20252;-76
2021/04/24 08:16:45;;;;;;;17.98;8.55;;;13.40;52.50;;;;;;5097209;28;20199;-77
2021/04/24 08:19:11;;;;;;;17.30;8.57;;;13.60;52.00;;;;;;5101896;28;20175;-78
2021/04/24 08:21:39;;;;;;;20.00;8.50;;;13.70;51.50;;;;;;5106654;28;20181;-77
2021/04/24 08:24:06;;;;;;;13.90;7.05;;;13.90;51.60;;;;;;5106751;28;20999;-79
2021/04/24 08:26:32;;;;;;;13.00;6.95;;;14.10;50.80;;;;;;5107426;28;20248;-78
2021/04/24 08:28:58;;;;;;;19.13;7.73;;;14.30;50.90;;;;;;5106954;28;20167;-79
2021/04/24 08:31:27;;;;;;;18.88;7.80;;;14.40;50.50;;;;;;5106884;28;20444;-80
2021/04/24 08:33:53;;;;;;;23.48;8.45;;;14.50;50.90;;;;;;5088332;28;20575;-79
2021/04/24 08:36:21;;;;;;;20.93;9.10;;;14.60;50.30;;;;;;5094840;28;20167;-81
2021/04/24 08:38:47;;;;;;;20.25;7.75;;;14.70;50.10;;;;;;5111771;28;20190;-82
2021/04/24 08:41:13;;;;;;;19.90;8.90;;;14.90;48.80;;;;;;5107937;28;20171;-82
2021/04/24 08:43:40;;;;;;;17.80;8.00;;;15.00;48.80;;;;;;5108375;28;20211;-82
2021/04/24 08:46:06;;;;;;;20.48;8.25;;;15.20;48.60;;;;;;5109446;28;20183;-82
2021/04/24 08:48:34;;;;;;;16.30;8.55;;;15.20;47.70;;;;;;5110135;28;20172;-81
2021/04/24 08:51:01;;;;;;;25.75;8.23;;;15.30;47.10;;;;;;5110662;28;20210;-81
2021/04/24 08:53:27;;;;;;;19.75;8.70;;;15.50;47.40;;;;;;5109904;28;20195;-80
2021/04/24 08:55:53;;;;;;;17.17;8.02;;;15.70;45.40;;;;;;5107177;28;20261;-82
2021/04/24 08:58:20;;;;;;;49.08;9.13;;;15.90;46.10;;;;;;5109866;28;20167;-81
2021/04/24 09:00:49;;;;;;;21.55;8.45;;;16.00;43.70;;;;;;5108054;28;20202;-82
2021/04/24 09:03:20;;;;;;;22.08;9.88;;;16.20;43.50;;;;;;5110296;28;20247;-81
2021/04/24 09:05:53;;;;;;;20.20;7.70;;;16.30;42.60;;;;;;5107587;28;20240;-81
2021/04/24 09:08:26;;;;;;;18.70;8.85;;;16.50;42.90;;;;;;5106239;28;20546;-81
2021/04/24 09:10:57;;;;;;;20.05;9.23;;;16.60;46.70;;;;;;5105607;28;20190;-82
2021/04/24 09:13:24;;;;;;;19.08;8.40;;;16.80;44.30;;;;;;5105455;28;20262;-81
2021/04/24 09:15:51;;;;;;;18.67;8.48;;;16.90;44.60;;;;;;5107364;28;20171;-81
2021/04/24 09:18:18;;;;;;;22.38;8.10;;;17.10;42.40;;;;;;5108836;28;20486;-82
2021/04/24 09:20:46;;;;;;;16.85;8.27;;;17.30;41.50;;;;;;5108385;28;20224;-82
2021/04/24 09:23:14;;;;;;;23.52;9.32;;;17.50;38.90;;;;;;5107235;28;20686;-83
2021/04/24 09:25:50;;;;;;;19.63;8.32;;;17.60;40.50;;;;;;5106981;28;20178;-82
2021/04/24 09:28:39;;;;;;;17.75;7.60;;;17.80;39.00;;;;;;5107723;28;20175;-82
2021/04/24 09:31:13;;;;;;;18.10;8.88;;;18.00;35.60;;;;;;5108243;28;20265;-81
2021/04/24 09:33:40;;;;;;;16.98;8.45;;;17.90;35.60;;;;;;5110917;28;20580;-82
2021/04/24 09:36:09;;;;;;;18.75;9.15;;;17.90;36.90;;;;;;5100997;28;20209;-83
2021/04/24 09:38:45;;;;;;;16.30;8.98;;;18.00;37.80;;;;;;5106009;28;20171;-82
2021/04/24 09:41:16;;;;;;;21.90;8.80;;;18.30;38.90;;;;;;5092196;28;20170;-82
2021/04/24 09:43:58;;;;;;;23.05;8.98;;;18.50;38.50;;;;;;5110030;28;20572;-82
2021/04/24 09:46:44;;;;;;;25.02;9.70;;;18.70;36.80;;;;;;5108868;28;20191;-82
2021/04/24 09:49:28;;;;;;;25.38;9.27;;;19.00;37.20;;;;;;5108240;28;20175;-81
2021/04/24 09:52:03;;;;;;;17.05;8.95;;;19.00;36.00;;;;;;5125643;28;20191;-80
2021/04/24 09:54:36;;;;;;;28.27;10.07;;;19.10;36.80;;;;;;5102461;28;20252;-79
2021/04/24 09:57:14;;;;;;;15.88;8.05;;;19.20;34.70;;;;;;5098551;28;20175;-80
2021/04/24 09:59:53;;;;;;;22.58;8.40;;;19.40;34.80;;;;;;5083106;28;20530;-81
2021/04/24 10:02:33;;;;;;;20.25;8.43;;;19.60;35.00;;;;;;5085031;28;20172;-79
2021/04/24 10:05:06;;;;;;;24.85;9.63;;;19.90;33.80;;;;;;5082684;28;20175;-79
2021/04/24 10:07:38;;;;;;;15.60;7.90;;;20.10;34.70;;;;;;5083027;28;20310;-80
2021/04/24 10:10:07;;;;;;;18.52;8.15;;;20.30;31.40;;;;;;5081964;28;20164;-80
2021/04/24 10:12:33;;;;;;;21.60;7.60;;;20.30;31.80;;;;;;5086654;28;20191;-82
2021/04/24 10:15:02;;;;;;;16.30;8.50;;;20.50;29.80;;;;;;5092244;28;20249;-79
2021/04/24 10:17:28;;;;;;;15.15;7.97;;;20.40;30.80;;;;;;5079756;28;20405;-83
2021/04/24 10:20:04;;;;;;;24.35;9.75;;;20.70;33.40;;;;;;5081473;28;20167;-80
2021/04/24 10:22:41;;;;;;;18.48;9.77;;;20.90;32.60;;;;;;5077043;28;20611;-80
2021/04/24 10:25:41;;;;;;;20.50;8.70;;;21.20;31.80;;;;;;5079047;28;20179;-80
2021/04/24 10:28:08;;;;;;;32.83;11.05;;;21.20;30.90;;;;;;5082077;28;20191;-81
2021/04/24 10:30:40;;;;;;;25.15;9.90;;;21.00;29.80;;;;;;5084602;28;20194;-82
2021/04/24 10:33:06;;;;;;;21.45;9.07;;;20.70;30.90;;;;;;5101976;28;20463;-81
2021/04/24 10:35:32;;;;;;;17.90;8.65;;;20.60;31.20;;;;;;5101791;28;20167;-81
2021/04/24 10:38:01;;;;;;;18.33;8.95;;;20.60;30.90;;;;;;5102372;28;20163;-81
2021/04/24 10:40:30;;;;;;;15.60;9.48;;;20.70;30.60;;;;;;5100947;28;20163;-82
2021/04/24 10:42:59;;;;;;;16.77;8.70;;;20.90;30.90;;;;;;5103070;28;20278;-82
2021/04/24 10:45:35;;;;;;;23.63;10.05;;;20.90;30.90;;;;;;5101630;28;20186;-82
2021/04/24 10:48:03;;;;;;;21.65;9.55;;;21.10;31.30;;;;;;5102321;28;20166;-81
2021/04/24 10:50:39;;;;;;;20.13;9.40;;;20.90;31.40;;;;;;5102591;28;20171;-81
2021/04/24 10:53:24;;;;;;;29.42;8.77;;;20.90;31.20;;;;;;5099734;28;20186;-79
2021/04/24 10:55:51;;;;;;;23.27;8.48;;;21.20;31.50;;;;;;5099116;28;20159;-81
2021/04/24 10:58:19;;;;;;;21.08;8.60;;;21.50;29.50;;;;;;5101567;28;20171;-82
2021/04/24 11:00:47;;;;;;;20.33;8.38;;;21.60;29.80;;;;;;5099397;28;20179;-83
2021/04/24 11:03:33;;;;;;;22.33;8.32;;;21.80;29.00;;;;;;5100862;28;20198;-82
2021/04/24 11:06:14;;;;;;;17.98;7.72;;;22.10;29.00;;;;;;5103782;28;20171;-82
2021/04/24 11:08:41;;;;;;;15.48;7.53;;;22.20;28.90;;;;;;5103258;28;20175;-82
2021/04/24 11:11:12;;;;;;;15.50;7.75;;;22.40;26.70;;;;;;5103237;28;20195;-81
2021/04/24 11:13:46;;;;;;;13.38;8.00;;;22.30;27.50;;;;;;5102642;28;20191;-81
2021/04/24 11:16:15;;;;;;;17.67;7.88;;;22.40;27.70;;;;;;5103781;28;20734;-80
2021/04/24 11:18:47;;;;;;;16.45;8.40;;;22.60;26.50;;;;;;5104963;28;20196;-81
2021/04/24 11:21:16;;;;;;;14.63;7.63;;;22.70;27.20;;;;;;5108288;28;20175;-81
2021/04/24 11:23:48;;;;;;;18.73;9.48;;;22.90;27.80;;;;;;5107330;28;20191;-81
2021/04/24 11:26:21;;;;;;;22.45;8.07;;;22.90;27.10;;;;;;5107105;28;20188;-82
2021/04/24 11:29:08;;;;;;;15.57;7.97;;;22.80;27.10;;;;;;5104442;28;20651;-81
2021/04/24 11:32:00;;;;;;;13.48;6.90;;;22.80;26.50;;;;;;5102390;28;20233;-82
2021/04/24 11:34:33;;;;;;;23.23;8.90;;;22.90;25.30;;;;;;5107595;28;20289;-82
2021/04/24 11:40:05;;;;;;;20.60;9.07;;;23.50;27.00;;;;;;5125700;28;20156;-81
2021/04/24 11:42:32;;;;;;;14.63;8.85;;;23.50;26.80;;;;;;5104851;28;20172;-81
2021/04/24 11:44:58;;;;;;;21.05;7.65;;;23.00;26.90;;;;;;5103322;28;20194;-78
2021/04/24 11:47:39;;;;;;;20.42;8.90;;;23.10;28.20;;;;;;5097617;28;20175;-78
2021/04/24 11:50:07;;;;;;;21.67;10.20;;;23.00;27.00;;;;;;5097430;28;20206;-77
2021/04/24 11:52:32;;;;;;;17.60;9.00;;;23.00;27.80;;;;;;5096736;28;20411;-78
2021/04/24 11:54:58;;;;;;;19.23;9.30;;;23.10;27.30;;;;;;5097701;28;20171;-78
2021/04/24 11:57:26;;;;;;;19.23;8.73;;;23.10;27.20;;;;;;5097535;28;20536;-78
2021/04/24 11:59:52;;;;;;;21.23;8.93;;;23.10;27.20;;;;;;5097750;28;20175;-78
2021/04/24 12:02:20;;;;;;;20.83;8.80;;;23.20;26.90;;;;;;5097028;28;20175;-79
2021/04/24 12:04:49;;;;;;;20.67;8.73;;;23.30;27.50;;;;;;5093119;28;20425;-79
2021/04/24 12:07:18;;;;;;;17.33;8.13;;;23.40;26.20;;;;;;5078198;28;20176;-78
2021/04/24 12:09:50;;;;;;;21.83;9.30;;;23.50;27.30;;;;;;5077299;28;20172;-78
2021/04/24 12:12:21;;;;;;;24.73;8.07;;;23.50;25.90;;;;;;5096415;28;20291;-78
2021/04/24 12:14:48;;;;;;;16.65;8.60;;;23.40;25.90;;;;;;5096834;28;20202;-78
2021/04/24 12:17:17;;;;;;;24.52;9.25;;;23.40;25.20;;;;;;5115186;28;20242;-78
2021/04/24 12:19:45;;;;;;;16.98;8.98;;;23.40;25.70;;;;;;5096804;28;20171;-77
2021/04/24 12:22:20;;;;;;;19.92;7.78;;;23.10;25.70;;;;;;5096725;28;20175;-78
2021/04/24 12:24:56;;;;;;;18.25;8.93;;;23.20;26.40;;;;;;5096935;28;20194;-77
2021/04/24 12:27:41;;;;;;;15.05;7.65;;;23.40;26.40;;;;;;5096714;28;20257;-78
2021/04/24 12:30:09;;;;;;;14.65;8.57;;;23.40;26.20;;;;;;5092148;28;20600;-77
2021/04/24 12:32:41;;;;;;;12.77;6.70;;;23.40;25.70;;;;;;5086900;28;20192;-78
2021/04/24 12:35:13;;;;;;;14.57;7.50;;;23.50;25.40;;;;;;5083040;28;20174;-78
2021/04/24 12:37:39;;;;;;;17.80;7.45;;;23.80;25.20;;;;;;5089081;28;20163;-79
2021/04/24 12:40:23;;;;;;;12.70;7.50;;;24.00;25.70;;;;;;5087440;28;20697;-78
2021/04/24 12:42:50;;;;;;;19.30;8.10;;;24.20;25.20;;;;;;5075713;28;20164;-76
2021/04/24 12:45:23;;;;;;;19.58;9.25;;;24.00;24.20;;;;;;5075890;28;20191;-76
2021/04/24 12:47:50;;;;;;;15.10;7.85;;;23.60;25.60;;;;;;5076379;28;20183;-75
2021/04/24 12:50:33;;;;;;;14.60;7.53;;;23.50;24.80;;;;;;5075884;28;20175;-75
2021/04/24 12:53:01;;;;;;;19.95;8.07;;;23.40;25.40;;;;;;5075739;28;20218;-74